createdAt,value
2023-05-20T00:01:06.235Z,14.00
2023-05-20T00:03:34.571Z,13.90
2023-05-20T00:06:02.923Z,13.90
2023-05-20T00:08:34.100Z,13.90
2023-05-20T00:11:02.263Z,13.90
2023-05-20T00:13:36.059Z,13.90
2023-05-20T00:16:07.272Z,13.90
2023-05-20T00:18:35.518Z,13.90
2023-05-20T00:21:04.022Z,13.90
2023-05-20T00:23:34.584Z,14.00
2023-05-20T00:26:02.729Z,13.90
2023-05-20T00:28:32.219Z,13.90
2023-05-20T00:31:00.391Z,13.90
2023-05-20T00:33:31.269Z,13.90
2023-05-20T00:36:02.475Z,13.90
2023-05-20T00:38:30.673Z,13.80
2023-05-20T00:41:00.235Z,13.80
2023-05-20T00:43:29.978Z,13.80
2023-05-20T00:45:59.277Z,13.80
2023-05-20T00:48:31.247Z,13.80
2023-05-20T00:50:59.328Z,13.70
2023-05-20T00:53:28.278Z,13.70
2023-05-20T00:55:56.440Z,13.70
2023-05-20T00:58:25.057Z,13.70
2023-05-20T01:00:58.664Z,13.70
2023-05-20T01:03:27.541Z,13.70
2023-05-20T01:05:57.565Z,13.70
2023-05-20T01:08:29.212Z,13.70
2023-05-20T01:11:10.107Z,13.70
2023-05-20T01:13:48.251Z,13.70
2023-05-20T01:16:19.541Z,13.70
2023-05-20T01:18:50.741Z,13.70
2023-05-20T01:21:20.638Z,13.70
2023-05-20T01:23:52.246Z,13.70
2023-05-20T01:26:22.265Z,13.60
2023-05-20T01:28:51.272Z,13.70
2023-05-20T01:31:24.900Z,13.60
2023-05-20T01:33:58.309Z,13.70
2023-05-20T01:36:27.827Z,13.60
2023-05-20T01:38:59.251Z,13.60
2023-05-20T01:41:30.206Z,13.60
2023-05-20T01:43:59.798Z,13.60
2023-05-20T01:46:27.987Z,13.50
2023-05-20T01:48:57.200Z,13.50
2023-05-20T01:51:26.342Z,13.40
2023-05-20T01:53:54.529Z,13.40
2023-05-20T01:56:24.162Z,13.40
2023-05-20T01:58:55.305Z,13.40
2023-05-20T02:01:24.239Z,13.40
2023-05-20T02:03:52.563Z,13.40
2023-05-20T02:06:24.362Z,13.30
2023-05-20T02:08:52.505Z,13.30
2023-05-20T02:11:21.323Z,13.40
2023-05-20T02:13:52.287Z,13.40
2023-05-20T02:16:21.308Z,13.40
2023-05-20T02:18:52.398Z,13.30
2023-05-20T02:21:20.609Z,13.30
2023-05-20T02:23:50.620Z,13.30
2023-05-20T02:26:21.280Z,13.30
2023-05-20T02:28:51.047Z,13.30
2023-05-20T02:31:23.039Z,13.30
2023-05-20T02:33:52.144Z,13.20
2023-05-20T02:36:20.429Z,13.20
2023-05-20T02:38:50.312Z,13.20
2023-05-20T02:41:18.449Z,13.20
2023-05-20T02:43:49.865Z,13.20
2023-05-20T02:46:19.389Z,13.30
2023-05-20T02:48:47.500Z,13.20
2023-05-20T02:51:17.114Z,13.20
2023-05-20T02:53:45.288Z,13.20
2023-05-20T02:56:13.906Z,13.20
2023-05-20T02:58:44.300Z,13.20
2023-05-20T03:01:14.370Z,13.30
2023-05-20T03:03:43.061Z,13.30
2023-05-20T03:06:11.188Z,13.20
2023-05-20T03:08:43.312Z,13.20
2023-05-20T03:11:11.896Z,13.20
2023-05-20T03:13:42.586Z,13.10
2023-05-20T03:16:13.412Z,13.10
2023-05-20T03:18:43.249Z,13.10
2023-05-20T03:21:11.589Z,13.20
2023-05-20T03:23:40.091Z,13.10
2023-05-20T03:26:12.537Z,13.10
2023-05-20T03:28:41.315Z,13.20
2023-05-20T03:31:10.494Z,13.20
2023-05-20T03:33:39.227Z,13.20
2023-05-20T03:36:09.330Z,13.20
2023-05-20T03:38:37.533Z,13.20
2023-05-20T03:41:05.837Z,13.20
2023-05-20T03:43:35.345Z,13.30
2023-05-20T03:46:03.678Z,13.30
2023-05-20T03:48:35.359Z,13.30
2023-05-20T03:51:03.687Z,13.30
2023-05-20T03:53:33.219Z,13.30
2023-05-20T03:56:02.658Z,13.30
2023-05-20T03:58:32.308Z,13.40
2023-05-20T04:01:03.296Z,13.40
2023-05-20T04:03:32.009Z,13.40
2023-05-20T04:06:00.277Z,13.40
2023-05-20T04:08:30.349Z,13.40
2023-05-20T04:10:59.908Z,13.40
2023-05-20T04:13:28.427Z,13.50
2023-05-20T04:15:56.690Z,13.50
2023-05-20T04:18:25.921Z,13.50
2023-05-20T04:20:56.381Z,13.60
2023-05-20T04:23:24.676Z,13.60
2023-05-20T04:25:53.334Z,13.70
2023-05-20T04:28:25.345Z,13.70
2023-05-20T04:31:00.285Z,13.70
2023-05-20T04:33:28.680Z,13.80
2023-05-20T04:35:59.277Z,13.80
2023-05-20T04:38:30.155Z,13.90
2023-05-20T04:41:01.378Z,13.90
2023-05-20T04:43:32.356Z,14.00
2023-05-20T04:46:06.123Z,14.00
2023-05-20T04:48:34.555Z,14.10
2023-05-20T04:51:03.358Z,14.20
2023-05-20T04:53:35.316Z,14.30
2023-05-20T04:56:03.572Z,14.30
2023-05-20T04:58:38.059Z,14.40
2023-05-20T05:01:06.570Z,14.50
2023-05-20T05:03:36.742Z,14.50
2023-05-20T05:06:09.915Z,14.60
2023-05-20T05:08:38.066Z,14.70
2023-05-20T05:11:10.612Z,14.80
2023-05-20T05:13:40.370Z,14.80
2023-05-20T05:16:08.648Z,14.90
2023-05-20T05:18:38.760Z,14.90
2023-05-20T05:21:07.812Z,15.00
2023-05-20T05:23:39.977Z,15.10
2023-05-20T05:26:08.197Z,15.20
2023-05-20T05:28:37.651Z,15.30
2023-05-20T05:31:08.211Z,15.40
2023-05-20T05:33:36.505Z,15.60
2023-05-20T05:36:06.023Z,15.60
2023-05-20T05:38:34.331Z,15.70
2023-05-20T05:41:07.029Z,15.70
2023-05-20T05:43:36.643Z,15.80
2023-05-20T05:46:07.680Z,15.90
2023-05-20T05:48:37.218Z,15.90
2023-05-20T05:51:06.233Z,16.00
2023-05-20T05:53:35.211Z,16.10
2023-05-20T05:56:04.473Z,16.20
2023-05-20T05:58:33.655Z,16.30
2023-05-20T06:01:02.524Z,16.40
2023-05-20T06:03:32.372Z,16.50
2023-05-20T06:06:02.928Z,16.60
2023-05-20T06:08:31.382Z,16.60
2023-05-20T06:11:00.205Z,16.70
2023-05-20T06:13:28.446Z,16.70
2023-05-20T06:15:58.156Z,16.80
2023-05-20T06:18:27.491Z,16.80
2023-05-20T06:21:03.837Z,16.80
2023-05-20T06:23:32.113Z,16.90
2023-05-20T06:26:03.715Z,16.90
2023-05-20T06:28:32.230Z,17.00
2023-05-20T06:31:00.596Z,17.10
2023-05-20T06:33:33.613Z,17.10
2023-05-20T06:36:08.598Z,17.20
2023-05-20T06:38:38.646Z,17.30
2023-05-20T06:41:07.529Z,17.40
2023-05-20T06:43:37.511Z,17.40
2023-05-20T06:46:27.902Z,17.40
2023-05-20T06:49:07.940Z,17.60
2023-05-20T06:51:45.254Z,17.70
2023-05-20T06:54:13.449Z,17.70
2023-05-20T06:56:50.316Z,17.70
2023-05-20T06:59:19.273Z,17.80
2023-05-20T07:01:47.467Z,17.90
2023-05-20T07:04:16.579Z,18.00
2023-05-20T07:06:46.218Z,18.10
2023-05-20T07:09:15.559Z,18.00
2023-05-20T07:11:47.768Z,18.10
2023-05-20T07:14:16.278Z,18.20
2023-05-20T07:16:44.755Z,18.30
2023-05-20T07:19:12.999Z,18.30
2023-05-20T07:21:41.201Z,18.40
2023-05-20T07:27:31.448Z,18.40
2023-05-20T07:29:59.755Z,18.40
2023-05-20T07:32:28.145Z,18.40
2023-05-20T07:34:57.402Z,18.50
2023-05-20T07:37:27.504Z,18.50
2023-05-20T07:39:57.135Z,18.50
2023-05-20T07:42:25.324Z,18.60
2023-05-20T07:44:59.481Z,18.50
2023-05-20T07:47:27.987Z,18.50
2023-05-20T07:49:56.498Z,18.60
2023-05-20T07:52:24.985Z,18.60
2023-05-20T07:54:53.310Z,18.60
2023-05-20T07:57:22.954Z,18.80
2023-05-20T07:59:54.329Z,19.00
2023-05-20T08:02:24.154Z,19.00
2023-05-20T08:04:54.529Z,18.90
2023-05-20T08:07:22.953Z,19.00
2023-05-20T08:09:54.949Z,19.00
2023-05-20T08:12:26.464Z,19.00
2023-05-20T08:14:56.179Z,19.10
2023-05-20T08:17:24.574Z,19.10
2023-05-20T08:19:54.912Z,19.10
2023-05-20T08:22:23.504Z,19.10
2023-05-20T08:24:51.828Z,19.20
2023-05-20T08:27:21.860Z,19.20
2023-05-20T08:29:51.620Z,19.30
2023-05-20T08:32:19.742Z,19.40
2023-05-20T08:34:49.233Z,19.50
2023-05-20T08:37:22.524Z,19.50
2023-05-20T08:39:50.928Z,19.50
2023-05-20T08:45:20.520Z,19.70
2023-05-20T08:47:51.571Z,19.90
2023-05-20T08:50:20.125Z,20.00
2023-05-20T08:52:50.520Z,20.10
2023-05-20T08:55:23.507Z,20.20
2023-05-20T08:57:55.500Z,20.30
2023-05-20T09:00:28.974Z,20.40
2023-05-20T09:03:00.735Z,20.60
2023-05-20T09:05:31.594Z,20.80
2023-05-20T09:08:07.793Z,21.00
2023-05-20T09:10:41.546Z,21.10
2023-05-20T09:13:11.150Z,21.30
2023-05-20T09:15:43.535Z,21.40
2023-05-20T09:18:23.133Z,21.50
2023-05-20T09:20:54.719Z,21.50
2023-05-20T09:23:23.009Z,21.60
2023-05-20T09:25:51.984Z,21.60
2023-05-20T09:28:21.097Z,21.60
2023-05-20T09:30:52.347Z,21.70
2023-05-20T09:33:22.594Z,21.70
2023-05-20T09:35:51.020Z,22.00
2023-05-20T09:38:20.744Z,22.10
2023-05-20T09:40:49.723Z,22.20
2023-05-20T09:43:24.601Z,22.10
2023-05-20T09:45:55.581Z,22.20
2023-05-20T09:48:25.219Z,22.30
2023-05-20T09:50:54.359Z,22.40
2023-05-20T09:53:24.914Z,22.50
2023-05-20T09:55:53.987Z,22.60
2023-05-20T09:58:23.551Z,22.60
2023-05-20T10:00:51.879Z,22.70
2023-05-20T10:03:24.317Z,22.80
2023-05-20T10:06:08.442Z,22.90
2023-05-20T10:08:55.754Z,23.10
2023-05-20T10:11:34.644Z,23.10
2023-05-20T10:14:30.627Z,23.00
2023-05-20T10:17:10.090Z,23.10
2023-05-20T10:19:39.883Z,23.00
2023-05-20T10:22:34.314Z,22.90
2023-05-20T10:25:07.801Z,22.90
2023-05-20T10:27:46.595Z,22.90
2023-05-20T10:30:18.766Z,22.90
2023-05-20T10:33:01.620Z,23.00
2023-05-20T10:35:31.374Z,23.10
2023-05-20T10:38:11.678Z,23.30
2023-05-20T10:40:40.934Z,23.30
2023-05-20T10:43:12.774Z,23.30
2023-05-20T10:45:50.913Z,23.20
2023-05-20T10:48:26.080Z,23.20
2023-05-20T10:50:58.230Z,23.30
2023-05-20T10:53:33.619Z,23.30
2023-05-20T10:56:02.477Z,23.40
2023-05-20T10:58:39.107Z,23.50
2023-05-20T11:01:07.518Z,23.70
2023-05-20T11:03:37.369Z,23.70
2023-05-20T11:06:16.828Z,23.60
2023-05-20T11:08:47.616Z,23.50
2023-05-20T11:11:19.134Z,23.50
2023-05-20T11:13:53.046Z,23.50
2023-05-20T11:16:22.699Z,23.60
2023-05-20T11:18:51.423Z,23.60
2023-05-20T11:21:21.631Z,23.80
2023-05-20T11:23:53.203Z,23.80
2023-05-20T11:26:22.601Z,23.90
2023-05-20T11:28:50.788Z,23.80
2023-05-20T11:31:19.753Z,23.80
2023-05-20T11:33:48.623Z,23.90
2023-05-20T11:36:27.386Z,24.00
2023-05-20T11:38:58.681Z,24.10
2023-05-20T11:41:28.689Z,24.00
2023-05-20T11:43:58.945Z,24.10
2023-05-20T11:46:31.497Z,24.20
2023-05-20T11:49:03.150Z,24.30
2023-05-20T11:51:31.701Z,24.30
2023-05-20T11:54:03.196Z,24.30
2023-05-20T11:56:31.738Z,24.30
2023-05-20T11:59:01.494Z,24.30
2023-05-20T12:01:34.663Z,24.40
2023-05-20T12:04:03.019Z,24.20
2023-05-20T12:06:34.645Z,24.30
2023-05-20T12:09:07.240Z,24.50
2023-05-20T12:11:37.071Z,24.80
2023-05-20T12:14:05.383Z,25.10
2023-05-20T12:16:42.612Z,25.30
2023-05-20T12:19:10.853Z,25.50
2023-05-20T12:21:38.964Z,25.70
2023-05-20T12:24:11.591Z,25.60
2023-05-20T12:26:40.409Z,25.50
2023-05-20T12:29:09.604Z,25.30
2023-05-20T12:31:37.829Z,25.10
2023-05-20T12:34:11.563Z,25.10
2023-05-20T12:36:42.432Z,25.30
2023-05-20T12:39:12.568Z,25.40
2023-05-20T12:41:42.608Z,25.80
2023-05-20T12:44:10.788Z,25.80
2023-05-20T12:46:43.472Z,25.90
2023-05-20T12:49:13.153Z,25.90
2023-05-20T12:51:41.295Z,25.90
2023-05-20T12:54:14.408Z,25.80
2023-05-20T12:56:42.689Z,25.60
2023-05-20T12:59:11.615Z,25.60
2023-05-20T13:01:40.187Z,25.50
2023-05-20T13:04:08.612Z,25.40
2023-05-20T13:06:38.168Z,25.40
2023-05-20T13:09:07.926Z,25.90
2023-05-20T13:11:39.390Z,26.70
2023-05-20T13:14:07.514Z,27.40
2023-05-20T13:16:37.696Z,27.60
2023-05-20T13:19:06.181Z,27.60
2023-05-20T13:21:34.620Z,27.30
2023-05-20T13:24:07.744Z,27.00
2023-05-20T13:26:36.622Z,26.70
2023-05-20T13:29:04.916Z,26.50
2023-05-20T13:31:33.660Z,26.30
2023-05-20T13:34:02.077Z,26.10
2023-05-20T13:36:30.217Z,26.10
2023-05-20T13:38:59.476Z,25.90
2023-05-20T13:41:30.705Z,25.70
2023-05-20T13:43:58.824Z,25.70
2023-05-20T13:46:27.738Z,26.10
2023-05-20T13:48:55.897Z,26.50
2023-05-20T13:51:26.413Z,27.80
2023-05-20T13:53:54.675Z,29.60
2023-05-20T13:56:22.945Z,30.10
2023-05-20T13:58:53.633Z,30.40
2023-05-20T14:01:21.872Z,30.30
2023-05-20T14:03:50.852Z,30.30
2023-05-20T14:06:19.133Z,29.90
2023-05-20T14:08:49.253Z,29.20
2023-05-20T14:11:18.508Z,28.70
2023-05-20T14:13:46.679Z,28.00
2023-05-20T14:16:17.707Z,27.20
2023-05-20T14:18:45.983Z,26.80
2023-05-20T14:21:15.247Z,26.40
2023-05-20T14:23:46.506Z,26.10
2023-05-20T14:26:14.663Z,25.80
2023-05-20T14:28:44.511Z,25.70
2023-05-20T14:31:13.669Z,25.50
2023-05-20T14:33:47.386Z,25.40
2023-05-20T14:36:15.571Z,25.20
2023-05-20T14:38:43.801Z,24.90
2023-05-20T14:41:13.693Z,24.90
2023-05-20T14:43:42.059Z,25.40
2023-05-20T14:46:10.364Z,26.30
2023-05-20T14:48:38.584Z,27.10
2023-05-20T14:51:09.051Z,27.90
2023-05-20T14:53:37.524Z,28.80
2023-05-20T14:56:07.018Z,29.80
2023-05-20T14:58:39.810Z,31.30
2023-05-20T15:01:10.366Z,32.70
2023-05-20T15:03:40.848Z,33.50
2023-05-20T15:06:10.324Z,33.40
2023-05-20T15:08:38.855Z,32.60
2023-05-20T15:11:06.978Z,31.60
2023-05-20T15:13:40.388Z,31.00
2023-05-20T15:16:09.791Z,30.50
2023-05-20T15:18:37.924Z,30.10
2023-05-20T15:21:06.724Z,29.80
2023-05-20T15:23:36.251Z,29.60
2023-05-20T15:26:06.673Z,29.60
2023-05-20T15:28:34.868Z,29.40
2023-05-20T15:31:02.912Z,28.80
2023-05-20T15:33:31.118Z,28.40
2023-05-20T15:35:59.360Z,28.40
2023-05-20T15:38:30.344Z,28.50
2023-05-20T15:40:59.887Z,28.80
2023-05-20T15:43:29.020Z,28.90
2023-05-20T15:45:57.782Z,29.00
2023-05-20T15:48:26.240Z,28.80
2023-05-20T15:50:54.474Z,28.80
2023-05-20T15:53:22.842Z,28.70
2023-05-20T15:55:51.614Z,28.70
2023-05-20T15:58:24.792Z,28.90
2023-05-20T16:00:52.952Z,28.90
2023-05-20T16:03:21.828Z,29.10
2023-05-20T16:05:50.117Z,29.00
2023-05-20T16:08:20.788Z,29.10
2023-05-20T16:10:50.616Z,29.10
2023-05-20T16:13:19.023Z,29.00
2023-05-20T16:15:51.054Z,28.80
2023-05-20T16:18:19.483Z,28.70
2023-05-20T16:20:47.615Z,28.60
2023-05-20T16:23:19.643Z,28.80
2023-05-20T16:25:47.742Z,28.60
2023-05-20T16:28:16.835Z,28.50
2023-05-20T16:30:45.098Z,28.40
2023-05-20T16:33:14.940Z,28.20
2023-05-20T16:35:43.111Z,28.00
2023-05-20T16:38:11.329Z,27.90
2023-05-20T16:40:39.673Z,27.80
2023-05-20T16:43:08.002Z,27.50
2023-05-20T16:45:36.705Z,27.20
2023-05-20T16:48:05.258Z,27.10
2023-05-20T16:50:35.946Z,26.80
2023-05-20T16:53:04.145Z,26.70
2023-05-20T16:55:34.900Z,26.50
2023-05-20T16:58:03.260Z,26.30
2023-05-20T17:00:31.671Z,26.10
2023-05-20T17:03:00.188Z,25.80
2023-05-20T17:05:28.365Z,25.70
2023-05-20T17:08:01.493Z,25.60
2023-05-20T17:10:30.643Z,25.40
2023-05-20T17:12:58.766Z,25.20
2023-05-20T17:15:27.831Z,25.00
2023-05-20T17:17:56.096Z,24.90
2023-05-20T17:20:27.810Z,24.70
2023-05-20T17:22:56.828Z,24.60
2023-05-20T17:25:26.333Z,24.50
2023-05-20T17:27:54.703Z,24.30
2023-05-20T17:30:23.232Z,24.20
2023-05-20T17:32:53.754Z,24.20
2023-05-20T17:35:25.729Z,24.00
2023-05-20T17:37:55.087Z,23.90
2023-05-20T17:40:23.651Z,23.80
2023-05-20T17:42:55.316Z,23.80
2023-05-20T17:45:23.492Z,23.70
2023-05-20T17:47:51.643Z,23.60
2023-05-20T17:50:19.865Z,23.50
2023-05-20T17:52:51.096Z,23.40
2023-05-20T17:55:23.580Z,23.30
2023-05-20T17:57:53.068Z,23.20
2023-05-20T18:00:21.771Z,23.00
2023-05-20T18:02:53.162Z,23.00
2023-05-20T18:05:21.522Z,22.90
2023-05-20T18:07:53.689Z,22.70
2023-05-20T18:10:21.909Z,22.60
2023-05-20T18:12:50.002Z,22.60
2023-05-20T18:15:23.302Z,22.50
2023-05-20T18:17:51.559Z,22.30
2023-05-20T18:20:20.686Z,22.20
2023-05-20T18:22:50.603Z,22.10
2023-05-20T18:25:19.026Z,22.00
2023-05-20T18:27:47.183Z,21.80
2023-05-20T18:30:19.682Z,21.70
2023-05-20T18:32:49.258Z,21.60
2023-05-20T18:35:17.505Z,21.50
2023-05-20T18:37:45.731Z,21.50
2023-05-20T18:40:14.496Z,21.60
2023-05-20T18:42:46.331Z,21.60
2023-05-20T18:45:14.603Z,21.60
2023-05-20T18:47:44.118Z,21.40
2023-05-20T18:50:13.099Z,21.30
2023-05-20T18:52:41.571Z,21.10
2023-05-20T18:55:10.517Z,21.10
2023-05-20T18:57:39.329Z,21.10
2023-05-20T19:00:12.443Z,21.00
2023-05-20T19:02:41.247Z,20.80
2023-05-20T19:05:12.524Z,20.80
2023-05-20T19:07:41.038Z,20.70
2023-05-20T19:10:10.150Z,20.70
2023-05-20T19:12:38.362Z,20.60
2023-05-20T19:15:07.579Z,20.50
2023-05-20T19:17:35.903Z,20.60
2023-05-20T19:20:07.335Z,20.50
2023-05-20T19:22:37.445Z,20.40
2023-05-20T19:25:07.126Z,20.30
2023-05-20T19:27:35.421Z,20.10
2023-05-20T19:30:03.642Z,20.10
2023-05-20T19:32:31.898Z,20.10
2023-05-20T19:35:00.070Z,20.00
2023-05-20T19:37:28.193Z,20.00
2023-05-20T19:39:58.011Z,19.90
2023-05-20T19:42:27.331Z,19.80
2023-05-20T19:44:55.764Z,19.70
2023-05-20T19:47:24.021Z,19.60
2023-05-20T19:49:53.897Z,19.50
2023-05-20T19:52:22.085Z,19.50
2023-05-20T19:54:50.453Z,19.30
2023-05-20T19:57:19.951Z,19.30
2023-05-20T19:59:52.218Z,19.30
2023-05-20T20:02:21.261Z,19.30
2023-05-20T20:04:49.615Z,19.30
2023-05-20T20:07:17.790Z,19.30
2023-05-20T20:09:48.310Z,19.30
2023-05-20T20:12:19.604Z,19.30
2023-05-20T20:14:47.806Z,19.30
2023-05-20T20:17:17.667Z,19.20
2023-05-20T20:19:48.053Z,19.20
2023-05-20T20:22:18.819Z,19.10
2023-05-20T20:24:47.089Z,19.00
2023-05-20T20:27:15.899Z,19.00
2023-05-20T20:29:45.951Z,19.00
2023-05-20T20:32:14.197Z,18.90
2023-05-20T20:34:43.041Z,18.90
2023-05-20T20:37:16.979Z,18.90
2023-05-20T20:39:46.990Z,18.70
2023-05-20T20:42:15.392Z,18.70
2023-05-20T20:44:48.543Z,18.70
2023-05-20T20:47:17.940Z,18.70
2023-05-20T20:49:46.111Z,18.60
2023-05-20T20:52:14.885Z,18.50
2023-05-20T20:54:43.551Z,18.50
2023-05-20T20:57:15.439Z,18.50
2023-05-20T20:59:47.870Z,18.40
2023-05-20T21:02:16.959Z,18.40
2023-05-20T21:04:45.120Z,18.40
2023-05-20T21:07:18.369Z,18.30
2023-05-20T21:09:47.182Z,18.30
2023-05-20T21:12:15.983Z,18.20
2023-05-20T21:14:46.224Z,18.20
2023-05-20T21:17:15.073Z,18.30
2023-05-20T21:19:43.747Z,18.20
2023-05-20T21:22:12.418Z,18.20
2023-05-20T21:24:44.039Z,18.20
2023-05-20T21:27:13.191Z,18.20
2023-05-20T21:29:41.885Z,18.20
2023-05-20T21:32:16.301Z,18.10
2023-05-20T21:34:45.067Z,18.10
2023-05-20T21:37:15.787Z,18.10
2023-05-20T21:39:47.279Z,18.00
2023-05-20T21:42:16.157Z,18.00
2023-05-20T21:44:44.850Z,17.90
2023-05-20T21:47:14.310Z,17.90
2023-05-20T21:49:44.298Z,17.80
2023-05-20T21:52:12.968Z,17.80
2023-05-20T21:54:42.842Z,17.80
2023-05-20T21:57:11.526Z,17.70
2023-05-20T21:59:41.238Z,17.70
2023-05-20T22:02:10.361Z,17.70
2023-05-20T22:04:39.105Z,17.70
2023-05-20T22:07:13.227Z,17.70
2023-05-20T22:09:41.979Z,17.60
2023-05-20T22:12:12.253Z,17.60
2023-05-20T22:14:44.093Z,17.60
2023-05-20T22:17:14.253Z,17.60
2023-05-20T22:19:42.910Z,17.60
2023-05-20T22:22:19.749Z,17.60
2023-05-20T22:24:49.343Z,17.60
2023-05-20T22:27:18.340Z,17.60
2023-05-20T22:29:47.450Z,17.60
2023-05-20T22:32:17.247Z,17.50
2023-05-20T22:34:46.527Z,17.40
2023-05-20T22:37:17.263Z,17.40
2023-05-20T22:39:47.281Z,17.40
2023-05-20T22:42:15.993Z,17.30
2023-05-20T22:44:45.255Z,17.30
2023-05-20T22:47:13.917Z,17.30
2023-05-20T22:49:42.524Z,17.30
2023-05-20T22:52:12.906Z,17.20
2023-05-20T22:54:43.285Z,17.20
2023-05-20T22:57:12.617Z,17.20
2023-05-20T22:59:41.265Z,17.10
2023-05-20T23:02:10.572Z,17.00
2023-05-20T23:04:39.640Z,16.90
2023-05-20T23:07:08.395Z,16.80
2023-05-20T23:09:36.989Z,16.80
2023-05-20T23:12:10.634Z,16.80
2023-05-20T23:14:39.451Z,16.80
2023-05-20T23:17:08.566Z,16.80
2023-05-20T23:19:37.220Z,16.80
2023-05-20T23:22:06.491Z,16.70
2023-05-20T23:24:37.945Z,16.70
2023-05-20T23:27:09.288Z,16.70
2023-05-20T23:29:38.394Z,16.60
2023-05-20T23:32:07.309Z,16.50
2023-05-20T23:34:36.560Z,16.50
2023-05-20T23:37:06.264Z,16.40
2023-05-20T23:39:35.286Z,16.30
2023-05-20T23:42:03.955Z,16.30
2023-05-20T23:44:38.262Z,16.30
2023-05-20T23:47:10.288Z,16.20
2023-05-20T23:49:39.302Z,16.20
2023-05-20T23:52:09.273Z,16.20
2023-05-20T23:54:40.633Z,16.20
2023-05-20T23:57:11.701Z,16.20
2023-05-20T23:59:43.461Z,16.10
